Time;durP1;ratioP1;P1;durP2;ratioP2;P2;SDS_P1;SDS_P2;PMS_P1;PMS_P2;Temp;Humidity;BMP_temperature;BMP_pressure;BME280_temperature;BME280_humidity;BME280_pressure;Samples;Min_cycle;Max_cycle;Signal;HPM_P1;HPM_P2
2021/10/14 00:00:06;;;;;;;7.4;5.750001;;;;;;;3.28;80.75;96118.72;;;;
2021/10/14 00:01:08;;;;;;;7.85;5.5;;;;;;;3.06;80.97168;96114.51;;;;
2021/10/14 00:02:09;;;;;;;7.85;5.5;;;;;;;3.06;80.97168;96114.51;;;;
2021/10/14 00:03:10;;;;;;;7.85;5.5;;;;;;;3.06;80.97168;96114.51;;;;
2021/10/14 00:04:11;;;;;;;7.85;5.5;;;;;;;3.06;80.97168;96114.51;;;;
2021/10/14 00:05:13;;;;;;;7.85;5.5;;;;;;;3.06;80.97168;96114.51;;;;
2021/10/14 00:06:14;;;;;;;7.85;5.5;;;;;;;3.06;80.97168;96114.51;;;;
2021/10/14 00:07:15;;;;;;;7.85;5.5;;;;;;;3.06;80.97168;96114.51;;;;
2021/10/14 00:08:15;;;;;;;7.85;5.5;;;;;;;3.06;80.97168;96114.51;;;;
2021/10/14 00:09:16;;;;;;;7.85;5.5;;;;;;;3.06;80.97168;96114.51;;;;
2021/10/14 00:10:16;;;;;;;7.85;5.5;;;;;;;3.06;80.97168;96114.51;;;;
2021/10/14 00:11:17;;;;;;;8.350001;5.8;;;;;;;2.96;81.15332;96118.72;;;;
2021/10/14 00:12:17;;;;;;;8.350001;5.8;;;;;;;2.96;81.15332;96118.72;;;;
2021/10/14 00:13:18;;;;;;;8.350001;5.8;;;;;;;2.96;81.15332;96118.72;;;;
2021/10/14 00:14:18;;;;;;;8.350001;5.8;;;;;;;2.96;81.15332;96118.72;;;;
2021/10/14 00:15:19;;;;;;;8.350001;5.8;;;;;;;2.96;81.15332;96118.72;;;;
2021/10/14 00:16:20;;;;;;;8.350001;5.8;;;;;;;2.96;81.15332;96118.72;;;;
2021/10/14 00:17:20;;;;;;;8.350001;5.8;;;;;;;2.96;81.15332;96118.72;;;;
2021/10/14 00:18:21;;;;;;;8.350001;5.8;;;;;;;2.96;81.15332;96118.72;;;;
2021/10/14 00:19:22;;;;;;;8.350001;5.8;;;;;;;2.96;81.15332;96118.72;;;;
2021/10/14 00:20:22;;;;;;;8.350001;5.8;;;;;;;2.96;81.15332;96118.72;;;;
2021/10/14 00:21:23;;;;;;;8.350001;5.8;;;;;;;2.96;81.15332;96118.72;;;;
2021/10/14 00:22:23;;;;;;;9.099998;5.7;;;;;;;2.93;81.24316;96119.98;;;;
2021/10/14 00:23:24;;;;;;;9.099998;5.7;;;;;;;2.93;81.24316;96119.98;;;;
2021/10/14 00:24:24;;;;;;;9.099998;5.7;;;;;;;2.93;81.24316;96119.98;;;;
2021/10/14 00:25:25;;;;;;;9.099998;5.7;;;;;;;2.93;81.24316;96119.98;;;;
2021/10/14 00:26:26;;;;;;;9.099998;5.7;;;;;;;2.93;81.24316;96119.98;;;;
2021/10/14 00:27:26;;;;;;;9.099998;5.7;;;;;;;2.93;81.24316;96119.98;;;;
2021/10/14 00:28:28;;;;;;;9.099998;5.7;;;;;;;2.93;81.24316;96119.98;;;;
2021/10/14 00:29:28;;;;;;;9.099998;5.7;;;;;;;2.93;81.24316;96119.98;;;;
2021/10/14 00:30:29;;;;;;;9.099998;5.7;;;;;;;2.93;81.24316;96119.98;;;;
2021/10/14 00:31:30;;;;;;;9.099998;5.7;;;;;;;2.93;81.24316;96119.98;;;;
2021/10/14 00:32:30;;;;;;;9.099998;5.7;;;;;;;2.93;81.24316;96119.98;;;;
2021/10/14 00:33:31;;;;;;;8.099999;5.449999;;;;;;;2.9;81.22559;96111.45;;;;
2021/10/14 00:34:31;;;;;;;8.099999;5.449999;;;;;;;2.9;81.22559;96111.45;;;;
2021/10/14 00:35:32;;;;;;;8.099999;5.449999;;;;;;;2.9;81.22559;96111.45;;;;
2021/10/14 00:36:32;;;;;;;8.099999;5.449999;;;;;;;2.9;81.22559;96111.45;;;;
2021/10/14 00:37:33;;;;;;;8.099999;5.449999;;;;;;;2.9;81.22559;96111.45;;;;
2021/10/14 00:38:34;;;;;;;8.099999;5.449999;;;;;;;2.9;81.22559;96111.45;;;;
2021/10/14 00:39:34;;;;;;;8.099999;5.449999;;;;;;;2.9;81.22559;96111.45;;;;
2021/10/14 00:40:35;;;;;;;8.099999;5.449999;;;;;;;2.9;81.22559;96111.45;;;;
2021/10/14 00:41:37;;;;;;;8.099999;5.449999;;;;;;;2.9;81.22559;96111.45;;;;
2021/10/14 00:42:39;;;;;;;8.099999;5.449999;;;;;;;2.9;81.22559;96111.45;;;;
2021/10/14 00:43:42;;;;;;;7.7;5.45;;;;;;;2.82;81.24219;96115.9;;;;
2021/10/14 00:44:43;;;;;;;7.7;5.45;;;;;;;2.82;81.24219;96115.9;;;;
2021/10/14 00:45:45;;;;;;;7.7;5.45;;;;;;;2.82;81.24219;96115.9;;;;
2021/10/14 00:46:46;;;;;;;7.7;5.45;;;;;;;2.82;81.24219;96115.9;;;;
2021/10/14 00:47:51;;;;;;;7.7;5.45;;;;;;;2.82;81.24219;96115.9;;;;
2021/10/14 00:48:52;;;;;;;7.7;5.45;;;;;;;2.82;81.24219;96115.9;;;;
2021/10/14 00:49:53;;;;;;;7.7;5.45;;;;;;;2.82;81.24219;96115.9;;;;
2021/10/14 00:50:54;;;;;;;7.7;5.45;;;;;;;2.82;81.24219;96115.9;;;;
2021/10/14 00:51:55;;;;;;;7.7;5.45;;;;;;;2.82;81.24219;96115.9;;;;
2021/10/14 00:52:57;;;;;;;7.7;5.45;;;;;;;2.82;81.24219;96115.9;;;;
2021/10/14 00:53:57;;;;;;;9.8;6.4;;;;;;;2.79;81.44629;96100.22;;;;
2021/10/14 00:54:59;;;;;;;9.8;6.4;;;;;;;2.79;81.44629;96100.22;;;;
2021/10/14 00:55:59;;;;;;;9.8;6.4;;;;;;;2.79;81.44629;96100.22;;;;
2021/10/14 00:57:00;;;;;;;9.8;6.4;;;;;;;2.79;81.44629;96100.22;;;;
2021/10/14 00:58:01;;;;;;;9.8;6.4;;;;;;;2.79;81.44629;96100.22;;;;
2021/10/14 00:59:02;;;;;;;9.8;6.4;;;;;;;2.79;81.44629;96100.22;;;;
2021/10/14 01:00:03;;;;;;;9.8;6.4;;;;;;;2.79;81.44629;96100.22;;;;
2021/10/14 01:01:05;;;;;;;9.8;6.4;;;;;;;2.79;81.44629;96100.22;;;;
2021/10/14 01:02:05;;;;;;;9.8;6.4;;;;;;;2.79;81.44629;96100.22;;;;
2021/10/14 01:03:07;;;;;;;9.8;6.4;;;;;;;2.79;81.44629;96100.22;;;;
2021/10/14 01:04:08;;;;;;;9.8;6.4;;;;;;;2.79;81.44629;96100.22;;;;
2021/10/14 01:05:08;;;;;;;11.1;7.05;;;;;;;2.87;81.60742;96100.64;;;;
2021/10/14 01:06:09;;;;;;;11.1;7.05;;;;;;;2.87;81.60742;96100.64;;;;
2021/10/14 01:07:10;;;;;;;11.1;7.05;;;;;;;2.87;81.60742;96100.64;;;;
2021/10/14 01:08:11;;;;;;;11.1;7.05;;;;;;;2.87;81.60742;96100.64;;;;
2021/10/14 01:09:11;;;;;;;11.1;7.05;;;;;;;2.87;81.60742;96100.64;;;;
2021/10/14 01:10:12;;;;;;;11.1;7.05;;;;;;;2.87;81.60742;96100.64;;;;
2021/10/14 01:11:13;;;;;;;11.1;7.05;;;;;;;2.87;81.60742;96100.64;;;;
2021/10/14 01:12:13;;;;;;;11.1;7.05;;;;;;;2.87;81.60742;96100.64;;;;
2021/10/14 01:13:16;;;;;;;11.1;7.05;;;;;;;2.87;81.60742;96100.64;;;;
2021/10/14 01:14:17;;;;;;;11.1;7.05;;;;;;;2.87;81.60742;96100.64;;;;
2021/10/14 01:15:18;;;;;;;10.7;6.199999;;;;;;;2.94;81.52734;96099.38;;;;
2021/10/14 01:16:22;;;;;;;10.7;6.199999;;;;;;;2.94;81.52734;96099.38;;;;
2021/10/14 01:17:23;;;;;;;10.7;6.199999;;;;;;;2.94;81.52734;96099.38;;;;
2021/10/14 01:18:23;;;;;;;10.7;6.199999;;;;;;;2.94;81.52734;96099.38;;;;
2021/10/14 01:19:23;;;;;;;10.7;6.199999;;;;;;;2.94;81.52734;96099.38;;;;
2021/10/14 01:20:24;;;;;;;10.7;6.199999;;;;;;;2.94;81.52734;96099.38;;;;
2021/10/14 01:21:25;;;;;;;10.7;6.199999;;;;;;;2.94;81.52734;96099.38;;;;
2021/10/14 01:22:26;;;;;;;10.7;6.199999;;;;;;;2.94;81.52734;96099.38;;;;
2021/10/14 01:23:26;;;;;;;10.7;6.199999;;;;;;;2.94;81.52734;96099.38;;;;
2021/10/14 01:24:27;;;;;;;10.7;6.199999;;;;;;;2.94;81.52734;96099.38;;;;
2021/10/14 01:25:28;;;;;;;10.7;6.199999;;;;;;;2.94;81.52734;96099.38;;;;
2021/10/14 01:26:30;;;;;;;8.9;5.600001;;;;;;;2.85;81.39258;96095.12;;;;
2021/10/14 01:27:30;;;;;;;8.9;5.600001;;;;;;;2.85;81.39258;96095.12;;;;
2021/10/14 01:28:31;;;;;;;8.9;5.600001;;;;;;;2.85;81.39258;96095.12;;;;
2021/10/14 01:29:31;;;;;;;8.9;5.600001;;;;;;;2.85;81.39258;96095.12;;;;
2021/10/14 01:30:33;;;;;;;8.9;5.600001;;;;;;;2.85;81.39258;96095.12;;;;
2021/10/14 01:31:34;;;;;;;8.9;5.600001;;;;;;;2.85;81.39258;96095.12;;;;
2021/10/14 01:32:35;;;;;;;8.9;5.600001;;;;;;;2.85;81.39258;96095.12;;;;
2021/10/14 01:33:35;;;;;;;8.9;5.600001;;;;;;;2.85;81.39258;96095.12;;;;
2021/10/14 01:34:36;;;;;;;8.9;5.600001;;;;;;;2.85;81.39258;96095.12;;;;
2021/10/14 01:35:36;;;;;;;8.9;5.600001;;;;;;;2.85;81.39258;96095.12;;;;
2021/10/14 01:36:37;;;;;;;9.75;6.2;;;;;;;2.62;81.69727;96107.84;;;;
2021/10/14 01:37:37;;;;;;;9.75;6.2;;;;;;;2.62;81.69727;96107.84;;;;
2021/10/14 01:38:38;;;;;;;9.75;6.2;;;;;;;2.62;81.69727;96107.84;;;;
2021/10/14 01:39:39;;;;;;;9.75;6.2;;;;;;;2.62;81.69727;96107.84;;;;
2021/10/14 01:40:39;;;;;;;9.75;6.2;;;;;;;2.62;81.69727;96107.84;;;;
2021/10/14 01:41:40;;;;;;;9.75;6.2;;;;;;;2.62;81.69727;96107.84;;;;
2021/10/14 01:42:43;;;;;;;9.75;6.2;;;;;;;2.62;81.69727;96107.84;;;;
2021/10/14 01:43:43;;;;;;;9.75;6.2;;;;;;;2.62;81.69727;96107.84;;;;
2021/10/14 01:44:44;;;;;;;9.75;6.2;;;;;;;2.62;81.69727;96107.84;;;;
2021/10/14 01:45:45;;;;;;;9.75;6.2;;;;;;;2.62;81.69727;96107.84;;;;
2021/10/14 01:46:46;;;;;;;9.75;6.2;;;;;;;2.62;81.69727;96107.84;;;;
2021/10/14 01:47:46;;;;;;;8.7;5.899999;;;;;;;2.46;81.97949;96103.91;;;;
2021/10/14 01:48:47;;;;;;;8.7;5.899999;;;;;;;2.46;81.97949;96103.91;;;;
2021/10/14 01:49:48;;;;;;;8.7;5.899999;;;;;;;2.46;81.97949;96103.91;;;;
2021/10/14 01:50:48;;;;;;;8.7;5.899999;;;;;;;2.46;81.97949;96103.91;;;;
2021/10/14 01:51:49;;;;;;;8.7;5.899999;;;;;;;2.46;81.97949;96103.91;;;;
2021/10/14 01:52:49;;;;;;;8.7;5.899999;;;;;;;2.46;81.97949;96103.91;;;;
2021/10/14 01:53:50;;;;;;;8.7;5.899999;;;;;;;2.46;81.97949;96103.91;;;;
2021/10/14 01:54:50;;;;;;;8.7;5.899999;;;;;;;2.46;81.97949;96103.91;;;;
2021/10/14 01:55:51;;;;;;;8.7;5.899999;;;;;;;2.46;81.97949;96103.91;;;;
2021/10/14 01:56:51;;;;;;;8.7;5.899999;;;;;;;2.46;81.97949;96103.91;;;;
2021/10/14 01:57:52;;;;;;;8.7;5.899999;;;;;;;2.46;81.97949;96103.91;;;;
2021/10/14 01:58:52;;;;;;;8.850001;6.05;;;;;;;2.32;82.1748;96107.65;;;;
2021/10/14 01:59:53;;;;;;;8.850001;6.05;;;;;;;2.32;82.1748;96107.65;;;;
2021/10/14 02:00:53;;;;;;;8.850001;6.05;;;;;;;2.32;82.1748;96107.65;;;;
2021/10/14 02:01:54;;;;;;;8.850001;6.05;;;;;;;2.32;82.1748;96107.65;;;;
2021/10/14 02:02:54;;;;;;;8.850001;6.05;;;;;;;2.32;82.1748;96107.65;;;;
2021/10/14 02:03:55;;;;;;;8.850001;6.05;;;;;;;2.32;82.1748;96107.65;;;;
2021/10/14 02:04:55;;;;;;;8.850001;6.05;;;;;;;2.32;82.1748;96107.65;;;;
2021/10/14 02:05:56;;;;;;;8.850001;6.05;;;;;;;2.32;82.1748;96107.65;;;;
2021/10/14 02:06:56;;;;;;;8.850001;6.05;;;;;;;2.32;82.1748;96107.65;;;;
2021/10/14 02:07:57;;;;;;;8.850001;6.05;;;;;;;2.32;82.1748;96107.65;;;;
2021/10/14 02:08:58;;;;;;;11.2;6.5;;;;;;;2.19;82.31641;96100.64;;;;
2021/10/14 02:09:58;;;;;;;11.2;6.5;;;;;;;2.19;82.31641;96100.64;;;;
2021/10/14 02:10:59;;;;;;;11.2;6.5;;;;;;;2.19;82.31641;96100.64;;;;
2021/10/14 02:11:59;;;;;;;11.2;6.5;;;;;;;2.19;82.31641;96100.64;;;;
2021/10/14 02:13:00;;;;;;;11.2;6.5;;;;;;;2.19;82.31641;96100.64;;;;
2021/10/14 02:14:01;;;;;;;11.2;6.5;;;;;;;2.19;82.31641;96100.64;;;;
2021/10/14 02:15:02;;;;;;;11.2;6.5;;;;;;;2.19;82.31641;96100.64;;;;
2021/10/14 02:16:03;;;;;;;11.2;6.5;;;;;;;2.19;82.31641;96100.64;;;;
2021/10/14 02:17:05;;;;;;;11.2;6.5;;;;;;;2.19;82.31641;96100.64;;;;
2021/10/14 02:18:05;;;;;;;11.2;6.5;;;;;;;2.19;82.31641;96100.64;;;;
2021/10/14 02:19:05;;;;;;;11.2;6.5;;;;;;;2.19;82.31641;96100.64;;;;
2021/10/14 02:20:06;;;;;;;11.2;6.5;;;;;;;2.19;82.31641;96100.64;;;;
2021/10/14 02:21:07;;;;;;;11.2;6.5;;;;;;;2.19;82.31641;96100.64;;;;
2021/10/14 02:22:08;;;;;;;11.2;6.5;;;;;;;2.19;82.31641;96100.64;;;;
2021/10/14 02:23:08;;;;;;;11.2;6.5;;;;;;;2.19;82.31641;96100.64;;;;
2021/10/14 02:24:09;;;;;;;11.2;6.5;;;;;;;2.19;82.31641;96100.64;;;;
2021/10/14 02:25:10;;;;;;;11.2;6.5;;;;;;;2.19;82.31641;96100.64;;;;
2021/10/14 02:26:12;;;;;;;11.2;6.5;;;;;;;2.19;82.31641;96100.64;;;;
2021/10/14 02:27:12;;;;;;;11.2;6.5;;;;;;;2.19;82.31641;96100.64;;;;
2021/10/14 02:28:13;;;;;;;11.2;6.5;;;;;;;2.19;82.31641;96100.64;;;;
2021/10/14 02:29:14;;;;;;;11.2;6.5;;;;;;;2.19;82.31641;96100.64;;;;
2021/10/14 02:30:14;;;;;;;12.45;8.050001;;;;;;;2.11;82.74121;96107.28;;;;
2021/10/14 02:31:15;;;;;;;12.45;8.050001;;;;;;;2.11;82.74121;96107.28;;;;
2021/10/14 02:32:15;;;;;;;12.45;8.050001;;;;;;;2.11;82.74121;96107.28;;;;
2021/10/14 02:33:16;;;;;;;12.45;8.050001;;;;;;;2.11;82.74121;96107.28;;;;
2021/10/14 02:34:17;;;;;;;12.45;8.050001;;;;;;;2.11;82.74121;96107.28;;;;
2021/10/14 02:35:17;;;;;;;12.45;8.050001;;;;;;;2.11;82.74121;96107.28;;;;
2021/10/14 02:36:18;;;;;;;12.45;8.050001;;;;;;;2.11;82.74121;96107.28;;;;
2021/10/14 02:37:18;;;;;;;12.45;8.050001;;;;;;;2.11;82.74121;96107.28;;;;
2021/10/14 02:38:19;;;;;;;12.45;8.050001;;;;;;;2.11;82.74121;96107.28;;;;
2021/10/14 02:39:19;;;;;;;12.45;8.050001;;;;;;;2.11;82.74121;96107.28;;;;
2021/10/14 02:40:20;;;;;;;12.45;8.050001;;;;;;;2.11;82.74121;96107.28;;;;
2021/10/14 02:41:20;;;;;;;18.9;10.3;;;;;;;2.44;82.9082;96107.65;;;;
2021/10/14 02:42:21;;;;;;;18.9;10.3;;;;;;;2.44;82.9082;96107.65;;;;
2021/10/14 02:43:21;;;;;;;18.9;10.3;;;;;;;2.44;82.9082;96107.65;;;;
2021/10/14 02:44:22;;;;;;;18.9;10.3;;;;;;;2.44;82.9082;96107.65;;;;
2021/10/14 02:45:22;;;;;;;18.9;10.3;;;;;;;2.44;82.9082;96107.65;;;;
2021/10/14 02:46:23;;;;;;;18.9;10.3;;;;;;;2.44;82.9082;96107.65;;;;
2021/10/14 02:47:23;;;;;;;18.9;10.3;;;;;;;2.44;82.9082;96107.65;;;;
2021/10/14 02:48:24;;;;;;;18.9;10.3;;;;;;;2.44;82.9082;96107.65;;;;
2021/10/14 02:49:24;;;;;;;18.9;10.3;;;;;;;2.44;82.9082;96107.65;;;;
2021/10/14 02:50:25;;;;;;;18.9;10.3;;;;;;;2.44;82.9082;96107.65;;;;
2021/10/14 02:51:26;;;;;;;16.9;10.15;;;;;;;2.85;82.75781;96095.56;;;;
2021/10/14 02:52:26;;;;;;;16.9;10.15;;;;;;;2.85;82.75781;96095.56;;;;
2021/10/14 02:53:28;;;;;;;16.9;10.15;;;;;;;2.85;82.75781;96095.56;;;;
2021/10/14 02:54:29;;;;;;;16.9;10.15;;;;;;;2.85;82.75781;96095.56;;;;
2021/10/14 02:55:30;;;;;;;16.9;10.15;;;;;;;2.85;82.75781;96095.56;;;;
2021/10/14 02:56:31;;;;;;;16.9;10.15;;;;;;;2.85;82.75781;96095.56;;;;
2021/10/14 02:57:31;;;;;;;16.9;10.15;;;;;;;2.85;82.75781;96095.56;;;;
2021/10/14 02:58:32;;;;;;;16.9;10.15;;;;;;;2.85;82.75781;96095.56;;;;
2021/10/14 02:59:32;;;;;;;16.9;10.15;;;;;;;2.85;82.75781;96095.56;;;;
2021/10/14 03:00:33;;;;;;;16.9;10.15;;;;;;;2.85;82.75781;96095.56;;;;
2021/10/14 03:01:33;;;;;;;16.9;10.15;;;;;;;2.85;82.75781;96095.56;;;;
2021/10/14 03:02:34;;;;;;;16.2;9.4;;;;;;;3.17;82.67188;96091.06;;;;
2021/10/14 03:03:34;;;;;;;16.2;9.4;;;;;;;3.17;82.67188;96091.06;;;;
2021/10/14 03:04:35;;;;;;;16.2;9.4;;;;;;;3.17;82.67188;96091.06;;;;
2021/10/14 03:05:36;;;;;;;16.2;9.4;;;;;;;3.17;82.67188;96091.06;;;;
2021/10/14 03:06:36;;;;;;;16.2;9.4;;;;;;;3.17;82.67188;96091.06;;;;
2021/10/14 03:07:37;;;;;;;16.2;9.4;;;;;;;3.17;82.67188;96091.06;;;;
2021/10/14 03:08:37;;;;;;;16.2;9.4;;;;;;;3.17;82.67188;96091.06;;;;
2021/10/14 03:09:38;;;;;;;16.2;9.4;;;;;;;3.17;82.67188;96091.06;;;;
2021/10/14 03:10:38;;;;;;;16.2;9.4;;;;;;;3.17;82.67188;96091.06;;;;
2021/10/14 03:11:39;;;;;;;16.2;9.4;;;;;;;3.17;82.67188;96091.06;;;;
2021/10/14 03:12:39;;;;;;;15.5;8.75;;;;;;;3.4;82.56055;96096.41;;;;
2021/10/14 03:13:40;;;;;;;15.5;8.75;;;;;;;3.4;82.56055;96096.41;;;;
2021/10/14 03:14:40;;;;;;;15.5;8.75;;;;;;;3.4;82.56055;96096.41;;;;
2021/10/14 03:15:41;;;;;;;15.5;8.75;;;;;;;3.4;82.56055;96096.41;;;;
2021/10/14 03:16:42;;;;;;;15.5;8.75;;;;;;;3.4;82.56055;96096.41;;;;
2021/10/14 03:17:42;;;;;;;15.5;8.75;;;;;;;3.4;82.56055;96096.41;;;;
2021/10/14 03:18:43;;;;;;;15.5;8.75;;;;;;;3.4;82.56055;96096.41;;;;
2021/10/14 03:19:43;;;;;;;15.5;8.75;;;;;;;3.4;82.56055;96096.41;;;;
2021/10/14 03:20:44;;;;;;;15.5;8.75;;;;;;;3.4;82.56055;96096.41;;;;
2021/10/14 03:21:45;;;;;;;15.5;8.75;;;;;;;3.4;82.56055;96096.41;;;;
2021/10/14 03:22:45;;;;;;;15.5;8.75;;;;;;;3.4;82.56055;96096.41;;;;
2021/10/14 03:23:46;;;;;;;14.65;8.799998;;;;;;;3.57;82.68555;96106.04;;;;
2021/10/14 03:24:46;;;;;;;14.65;8.799998;;;;;;;3.57;82.68555;96106.04;;;;
2021/10/14 03:25:47;;;;;;;14.65;8.799998;;;;;;;3.57;82.68555;96106.04;;;;
2021/10/14 03:26:47;;;;;;;14.65;8.799998;;;;;;;3.57;82.68555;96106.04;;;;
2021/10/14 03:27:48;;;;;;;14.65;8.799998;;;;;;;3.57;82.68555;96106.04;;;;
2021/10/14 03:28:50;;;;;;;14.65;8.799998;;;;;;;3.57;82.68555;96106.04;;;;
2021/10/14 03:29:50;;;;;;;14.65;8.799998;;;;;;;3.57;82.68555;96106.04;;;;
2021/10/14 03:30:51;;;;;;;14.65;8.799998;;;;;;;3.57;82.68555;96106.04;;;;
2021/10/14 03:31:51;;;;;;;14.65;8.799998;;;;;;;3.57;82.68555;96106.04;;;;
2021/10/14 03:32:52;;;;;;;14.65;8.799998;;;;;;;3.57;82.68555;96106.04;;;;
2021/10/14 03:33:52;;;;;;;14.65;8.799998;;;;;;;3.57;82.68555;96106.04;;;;
2021/10/14 03:34:53;;;;;;;17;9.000001;;;;;;;3.62;82.73633;96119.28;;;;
2021/10/14 03:35:53;;;;;;;17;9.000001;;;;;;;3.62;82.73633;96119.28;;;;
2021/10/14 03:36:54;;;;;;;17;9.000001;;;;;;;3.62;82.73633;96119.28;;;;
2021/10/14 03:37:55;;;;;;;17;9.000001;;;;;;;3.62;82.73633;96119.28;;;;
2021/10/14 03:38:55;;;;;;;17;9.000001;;;;;;;3.62;82.73633;96119.28;;;;
2021/10/14 03:39:56;;;;;;;17;9.000001;;;;;;;3.62;82.73633;96119.28;;;;
2021/10/14 03:40:56;;;;;;;17;9.000001;;;;;;;3.62;82.73633;96119.28;;;;
2021/10/14 03:41:57;;;;;;;17;9.000001;;;;;;;3.62;82.73633;96119.28;;;;
2021/10/14 03:42:57;;;;;;;17;9.000001;;;;;;;3.62;82.73633;96119.28;;;;
2021/10/14 03:43:58;;;;;;;17;9.000001;;;;;;;3.62;82.73633;96119.28;;;;
2021/10/14 03:44:58;;;;;;;15.35;9.25;;;;;;;3.72;83.00879;96118.17;;;;
2021/10/14 03:45:59;;;;;;;15.35;9.25;;;;;;;3.72;83.00879;96118.17;;;;
2021/10/14 03:46:59;;;;;;;15.35;9.25;;;;;;;3.72;83.00879;96118.17;;;;
2021/10/14 03:48:00;;;;;;;15.35;9.25;;;;;;;3.72;83.00879;96118.17;;;;
2021/10/14 03:49:00;;;;;;;15.35;9.25;;;;;;;3.72;83.00879;96118.17;;;;
2021/10/14 03:50:01;;;;;;;15.35;9.25;;;;;;;3.72;83.00879;96118.17;;;;
2021/10/14 03:51:02;;;;;;;15.35;9.25;;;;;;;3.72;83.00879;96118.17;;;;
2021/10/14 03:52:03;;;;;;;15.35;9.25;;;;;;;3.72;83.00879;96118.17;;;;
2021/10/14 03:53:03;;;;;;;15.35;9.25;;;;;;;3.72;83.00879;96118.17;;;;
2021/10/14 03:54:04;;;;;;;15.35;9.25;;;;;;;3.72;83.00879;96118.17;;;;
2021/10/14 03:55:05;;;;;;;15.35;9.25;;;;;;;3.72;83.00879;96118.17;;;;
2021/10/14 03:56:07;;;;;;;16.85;9.299999;;;;;;;3.83;83.17773;96108.44;;;;
2021/10/14 03:57:08;;;;;;;16.85;9.299999;;;;;;;3.83;83.17773;96108.44;;;;
2021/10/14 03:58:08;;;;;;;16.85;9.299999;;;;;;;3.83;83.17773;96108.44;;;;
2021/10/14 03:59:09;;;;;;;16.85;9.299999;;;;;;;3.83;83.17773;96108.44;;;;
2021/10/14 04:00:09;;;;;;;16.85;9.299999;;;;;;;3.83;83.17773;96108.44;;;;
2021/10/14 04:01:11;;;;;;;16.85;9.299999;;;;;;;3.83;83.17773;96108.44;;;;
2021/10/14 04:02:12;;;;;;;16.85;9.299999;;;;;;;3.83;83.17773;96108.44;;;;
2021/10/14 04:03:12;;;;;;;16.85;9.299999;;;;;;;3.83;83.17773;96108.44;;;;
2021/10/14 04:04:12;;;;;;;16.85;9.299999;;;;;;;3.83;83.17773;96108.44;;;;
2021/10/14 04:05:13;;;;;;;16.85;9.299999;;;;;;;3.83;83.17773;96108.44;;;;
2021/10/14 04:06:14;;;;;;;17.15;9.599999;;;;;;;3.88;83.2832;96104.24;;;;
2021/10/14 04:07:14;;;;;;;17.15;9.599999;;;;;;;3.88;83.2832;96104.24;;;;
2021/10/14 04:08:15;;;;;;;17.15;9.599999;;;;;;;3.88;83.2832;96104.24;;;;
2021/10/14 04:09:15;;;;;;;17.15;9.599999;;;;;;;3.88;83.2832;96104.24;;;;
2021/10/14 04:10:16;;;;;;;17.15;9.599999;;;;;;;3.88;83.2832;96104.24;;;;
2021/10/14 04:11:17;;;;;;;17.15;9.599999;;;;;;;3.88;83.2832;96104.24;;;;
2021/10/14 04:12:17;;;;;;;17.15;9.599999;;;;;;;3.88;83.2832;96104.24;;;;
2021/10/14 04:13:18;;;;;;;17.15;9.599999;;;;;;;3.88;83.2832;96104.24;;;;
2021/10/14 04:14:18;;;;;;;17.15;9.599999;;;;;;;3.88;83.2832;96104.24;;;;
2021/10/14 04:15:19;;;;;;;17.15;9.599999;;;;;;;3.88;83.2832;96104.24;;;;
2021/10/14 04:16:19;;;;;;;17.15;9.599999;;;;;;;3.88;83.2832;96104.24;;;;
2021/10/14 04:17:20;;;;;;;15.4;9.35;;;;;;;3.88;83.41797;96119;;;;
2021/10/14 04:18:20;;;;;;;15.4;9.35;;;;;;;3.88;83.41797;96119;;;;
2021/10/14 04:19:21;;;;;;;15.4;9.35;;;;;;;3.88;83.41797;96119;;;;
2021/10/14 04:20:22;;;;;;;15.4;9.35;;;;;;;3.88;83.41797;96119;;;;
2021/10/14 04:21:23;;;;;;;15.4;9.35;;;;;;;3.88;83.41797;96119;;;;
2021/10/14 04:22:23;;;;;;;15.4;9.35;;;;;;;3.88;83.41797;96119;;;;
2021/10/14 04:23:24;;;;;;;15.4;9.35;;;;;;;3.88;83.41797;96119;;;;
2021/10/14 04:24:26;;;;;;;15.4;9.35;;;;;;;3.88;83.41797;96119;;;;
2021/10/14 04:25:27;;;;;;;15.4;9.35;;;;;;;3.88;83.41797;96119;;;;
2021/10/14 04:26:27;;;;;;;15.4;9.35;;;;;;;3.88;83.41797;96119;;;;
2021/10/14 04:27:28;;;;;;;15.05;9.1;;;;;;;3.88;83.61914;96121.6;;;;
2021/10/14 04:28:28;;;;;;;15.05;9.1;;;;;;;3.88;83.61914;96121.6;;;;
2021/10/14 04:29:29;;;;;;;15.05;9.1;;;;;;;3.88;83.61914;96121.6;;;;
2021/10/14 04:30:30;;;;;;;15.05;9.1;;;;;;;3.88;83.61914;96121.6;;;;
2021/10/14 04:31:30;;;;;;;15.05;9.1;;;;;;;3.88;83.61914;96121.6;;;;
2021/10/14 04:32:31;;;;;;;15.05;9.1;;;;;;;3.88;83.61914;96121.6;;;;
2021/10/14 04:33:32;;;;;;;15.05;9.1;;;;;;;3.88;83.61914;96121.6;;;;
2021/10/14 04:34:32;;;;;;;15.05;9.1;;;;;;;3.88;83.61914;96121.6;;;;
2021/10/14 04:35:33;;;;;;;15.05;9.1;;;;;;;3.88;83.61914;96121.6;;;;
2021/10/14 04:36:34;;;;;;;15.05;9.1;;;;;;;3.88;83.61914;96121.6;;;;
2021/10/14 04:37:36;;;;;;;15.05;9.1;;;;;;;3.88;83.61914;96121.6;;;;
2021/10/14 04:38:39;;;;;;;16.05;9.599999;;;;;;;3.9;83.80176;96112.88;;;;
2021/10/14 04:39:40;;;;;;;16.05;9.599999;;;;;;;3.9;83.80176;96112.88;;;;
2021/10/14 04:40:40;;;;;;;16.05;9.599999;;;;;;;3.9;83.80176;96112.88;;;;
2021/10/14 04:41:41;;;;;;;16.05;9.599999;;;;;;;3.9;83.80176;96112.88;;;;
2021/10/14 04:42:42;;;;;;;16.05;9.599999;;;;;;;3.9;83.80176;96112.88;;;;
2021/10/14 04:43:42;;;;;;;16.05;9.599999;;;;;;;3.9;83.80176;96112.88;;;;
2021/10/14 04:44:43;;;;;;;16.05;9.599999;;;;;;;3.9;83.80176;96112.88;;;;
2021/10/14 04:45:43;;;;;;;16.05;9.599999;;;;;;;3.9;83.80176;96112.88;;;;
2021/10/14 04:46:45;;;;;;;16.05;9.599999;;;;;;;3.9;83.80176;96112.88;;;;
2021/10/14 04:47:45;;;;;;;16.05;9.599999;;;;;;;3.9;83.80176;96112.88;;;;
2021/10/14 04:48:46;;;;;;;15.75;9.500002;;;;;;;3.94;83.98535;96110.3;;;;
2021/10/14 04:49:47;;;;;;;15.75;9.500002;;;;;;;3.94;83.98535;96110.3;;;;
2021/10/14 04:50:48;;;;;;;15.75;9.500002;;;;;;;3.94;83.98535;96110.3;;;;
2021/10/14 04:51:49;;;;;;;15.75;9.500002;;;;;;;3.94;83.98535;96110.3;;;;
2021/10/14 04:52:49;;;;;;;15.75;9.500002;;;;;;;3.94;83.98535;96110.3;;;;
2021/10/14 04:53:50;;;;;;;15.75;9.500002;;;;;;;3.94;83.98535;96110.3;;;;
2021/10/14 04:54:50;;;;;;;15.75;9.500002;;;;;;;3.94;83.98535;96110.3;;;;
2021/10/14 04:55:51;;;;;;;15.75;9.500002;;;;;;;3.94;83.98535;96110.3;;;;
2021/10/14 04:56:52;;;;;;;15.75;9.500002;;;;;;;3.94;83.98535;96110.3;;;;
2021/10/14 04:57:53;;;;;;;15.75;9.500002;;;;;;;3.94;83.98535;96110.3;;;;
2021/10/14 04:58:53;;;;;;;15.75;9.500002;;;;;;;3.94;83.98535;96110.3;;;;
2021/10/14 04:59:54;;;;;;;15.5;9.850001;;;;;;;4.06;83.9668;96106.64;;;;
2021/10/14 05:00:54;;;;;;;15.5;9.850001;;;;;;;4.06;83.9668;96106.64;;;;
2021/10/14 05:01:55;;;;;;;15.5;9.850001;;;;;;;4.06;83.9668;96106.64;;;;
2021/10/14 05:02:55;;;;;;;15.5;9.850001;;;;;;;4.06;83.9668;96106.64;;;;
2021/10/14 05:03:56;;;;;;;15.5;9.850001;;;;;;;4.06;83.9668;96106.64;;;;
2021/10/14 05:04:56;;;;;;;15.5;9.850001;;;;;;;4.06;83.9668;96106.64;;;;
2021/10/14 05:05:57;;;;;;;15.5;9.850001;;;;;;;4.06;83.9668;96106.64;;;;
2021/10/14 05:06:57;;;;;;;15.5;9.850001;;;;;;;4.06;83.9668;96106.64;;;;
2021/10/14 05:07:58;;;;;;;15.5;9.850001;;;;;;;4.06;83.9668;96106.64;;;;
2021/10/14 05:08:58;;;;;;;15.5;9.850001;;;;;;;4.06;83.9668;96106.64;;;;
2021/10/14 05:09:59;;;;;;;15.5;9.850001;;;;;;;4.06;83.9668;96106.64;;;;
2021/10/14 05:10:59;;;;;;;14.5;9.550001;;;;;;;4.07;83.88477;96106.95;;;;
2021/10/14 05:11:59;;;;;;;14.5;9.550001;;;;;;;4.07;83.88477;96106.95;;;;
2021/10/14 05:13:00;;;;;;;14.5;9.550001;;;;;;;4.07;83.88477;96106.95;;;;
2021/10/14 05:14:00;;;;;;;14.5;9.550001;;;;;;;4.07;83.88477;96106.95;;;;
2021/10/14 05:15:01;;;;;;;14.5;9.550001;;;;;;;4.07;83.88477;96106.95;;;;
2021/10/14 05:16:04;;;;;;;14.5;9.550001;;;;;;;4.07;83.88477;96106.95;;;;
2021/10/14 05:17:05;;;;;;;14.5;9.550001;;;;;;;4.07;83.88477;96106.95;;;;
2021/10/14 05:18:06;;;;;;;14.5;9.550001;;;;;;;4.07;83.88477;96106.95;;;;
2021/10/14 05:19:07;;;;;;;14.5;9.550001;;;;;;;4.07;83.88477;96106.95;;;;
2021/10/14 05:20:08;;;;;;;14.5;9.550001;;;;;;;4.07;83.88477;96106.95;;;;
2021/10/14 05:21:09;;;;;;;18.15;10.2;;;;;;;4.16;83.97656;96119.69;;;;
2021/10/14 05:22:10;;;;;;;18.15;10.2;;;;;;;4.16;83.97656;96119.69;;;;
2021/10/14 05:23:10;;;;;;;18.15;10.2;;;;;;;4.16;83.97656;96119.69;;;;
2021/10/14 05:24:11;;;;;;;18.15;10.2;;;;;;;4.16;83.97656;96119.69;;;;
2021/10/14 05:25:11;;;;;;;18.15;10.2;;;;;;;4.16;83.97656;96119.69;;;;
2021/10/14 05:26:12;;;;;;;18.15;10.2;;;;;;;4.16;83.97656;96119.69;;;;
2021/10/14 05:27:12;;;;;;;18.15;10.2;;;;;;;4.16;83.97656;96119.69;;;;
2021/10/14 05:28:13;;;;;;;18.15;10.2;;;;;;;4.16;83.97656;96119.69;;;;
2021/10/14 05:29:13;;;;;;;18.15;10.2;;;;;;;4.16;83.97656;96119.69;;;;
2021/10/14 05:30:14;;;;;;;18.15;10.2;;;;;;;4.16;83.97656;96119.69;;;;
2021/10/14 05:31:15;;;;;;;18.15;10.2;;;;;;;4.16;83.97656;96119.69;;;;
2021/10/14 05:32:15;;;;;;;13.75;9.399999;;;;;;;4.24;83.99121;96118.8;;;;
2021/10/14 05:33:16;;;;;;;13.75;9.399999;;;;;;;4.24;83.99121;96118.8;;;;
2021/10/14 05:34:16;;;;;;;13.75;9.399999;;;;;;;4.24;83.99121;96118.8;;;;
2021/10/14 05:35:17;;;;;;;13.75;9.399999;;;;;;;4.24;83.99121;96118.8;;;;
2021/10/14 05:36:17;;;;;;;13.75;9.399999;;;;;;;4.24;83.99121;96118.8;;;;
2021/10/14 05:37:18;;;;;;;13.75;9.399999;;;;;;;4.24;83.99121;96118.8;;;;
2021/10/14 05:38:18;;;;;;;13.75;9.399999;;;;;;;4.24;83.99121;96118.8;;;;
2021/10/14 05:39:19;;;;;;;13.75;9.399999;;;;;;;4.24;83.99121;96118.8;;;;